• Join FlightAware (Why Join?)
  • Login
  • US Flag 
08:19PM EST


 

Airport Tracker/Info


-or-


 

Live Flight TrackerFlight Track Log ✈ AVN10 ✈ 29-Mar-2014 ✈ NVVV / VLI - YSSY / SYD

Flight Track Log - Related Links

Times and Time Zones

All times are in EDT time to prevent confusion due to time zone crossing. See the AVN10 flight status page for this flight to view local times or setup timezone preferences in your user account.

Time Position Orientation Groundspeed Altitude Reporting Facility
EDT Latitude Longitude Course Direction KTS MPH feet Rate Location/Type
12:19AM -17.9660 168.0841 220° Southwest  Level Estimated
12:20AM -18.0549 168.0053 220° Southwest  Level Estimated
12:21AM -18.1437 167.9265 220° Southwest  Level Estimated
12:22AM -18.2325 167.8476 220° Southwest  Level Estimated
12:23AM -18.3212 167.7686 220° Southwest  Level Estimated
12:24AM -18.4099 167.6896 220° Southwest  Level Estimated
12:25AM -18.4986 167.6104 220° Southwest  Level Estimated
12:26AM -18.5872 167.5312 220° Southwest  Level Estimated
12:27AM -18.6758 167.4519 220° Southwest  Level Estimated
12:28AM -18.7644 167.3725 220° Southwest  Level Estimated
12:29AM -18.8530 167.2931 220° Southwest  Level Estimated
12:30AM -18.9415 167.2135 220° Southwest  Level Estimated
12:31AM -19.0300 167.1339 220° Southwest  Level Estimated
12:32AM -19.1184 167.0542 220° Southwest  Level Estimated
12:33AM -19.2068 166.9743 220° Southwest  Level Estimated
12:34AM -19.2952 166.8945 220° Southwest  Level Estimated
12:35AM -19.3835 166.8145 220° Southwest  Level Estimated
12:36AM -19.4718 166.7344 221° Southwest  Level Estimated
12:37AM -19.5601 166.6543 221° Southwest  Level Estimated
12:38AM -19.6483 166.5740 221° Southwest  Level Estimated
12:39AM -19.7365 166.4937 221° Southwest  Level Estimated
12:40AM -19.8247 166.4133 221° Southwest  Level Estimated
12:41AM -19.9128 166.3328 221° Southwest  Level Estimated
12:42AM -20.0009 166.2522 221° Southwest  Level Estimated
12:43AM -20.0890 166.1715 221° Southwest  Level Estimated
12:44AM -20.1770 166.0907 221° Southwest  Level Estimated
12:45AM -20.2650 166.0098 221° Southwest  Level Estimated
12:46AM -20.3529 165.9289 221° Southwest  Level Estimated
12:47AM -20.4408 165.8478 221° Southwest  Level Estimated
12:48AM -20.5287 165.7667 221° Southwest  Level Estimated
12:49AM -20.6165 165.6854 221° Southwest  Level Estimated
12:50AM -20.7043 165.6041 221° Southwest  Level Estimated
12:51AM -20.7921 165.5227 221° Southwest  Level Estimated
12:52AM -20.8798 165.4411 221° Southwest  Level Estimated
12:53AM -20.9675 165.3595 221° Southwest  Level Estimated
12:54AM -21.0551 165.2778 221° Southwest  Level Estimated
12:55AM -21.1427 165.1960 221° Southwest  Level Estimated
12:56AM -21.2303 165.1141 221° Southwest  Level Estimated
12:57AM -21.3178 165.0321 221° Southwest  Level Estimated
12:58AM -21.4053 164.9500 221° Southwest  Level Estimated
12:59AM -21.4927 164.8678 221° Southwest  Level Estimated
01:00AM -21.5801 164.7855 221° Southwest  Level Estimated
01:01AM -21.6675 164.7031 221° Southwest  Level Estimated
01:02AM -21.7548 164.6206 221° Southwest  Level Estimated
01:03AM -21.8421 164.5380 221° Southwest  Level Estimated
01:04AM -21.9293 164.4553 221° Southwest  Level Estimated
01:05AM -22.0165 164.3725 221° Southwest  Level Estimated
01:06AM -22.1036 164.2896 221° Southwest  Level Estimated
01:07AM -22.1908 164.2066 221° Southwest  Level Estimated
01:08AM -22.2778 164.1235 221° Southwest  Level Estimated
01:09AM -22.3649 164.0403 221° Southwest  Level Estimated
01:10AM -22.4519 163.9570 222° Southwest  Level Estimated
01:11AM -22.5388 163.8736 222° Southwest  Level Estimated
01:12AM -22.6257 163.7900 222° Southwest  Level Estimated
01:13AM -22.7125 163.7064 222° Southwest  Level Estimated
01:14AM -22.7994 163.6227 222° Southwest  Level Estimated
01:15AM -22.8861 163.5388 222° Southwest  Level Estimated
01:16AM -22.9729 163.4549 222° Southwest  Level Estimated
01:17AM -23.0595 163.3708 222° Southwest  Level Estimated
01:18AM -23.1462 163.2866 222° Southwest  Level Estimated
01:19AM -23.2328 163.2024 222° Southwest  Level Estimated
01:20AM -23.3193 163.1180 222° Southwest  Level Estimated
01:21AM -23.4058 163.0335 222° Southwest  Level Estimated
01:22AM -23.4923 162.9489 222° Southwest  Level Estimated
01:23AM -23.5787 162.8642 222° Southwest  Level Estimated
01:24AM -23.6650 162.7793 222° Southwest  Level Estimated
01:25AM -23.7514 162.6944 222° Southwest  Level Estimated
01:26AM -23.8376 162.6093 222° Southwest  Level Estimated
01:27AM -23.9238 162.5242 222° Southwest  Level Estimated
01:27AM -24.2808 163.7738 224° Southwest 36,000  Level Aus ATC (Calculated)
01:29AM -24.4316 163.6034 226° Southwest  Level Estimated
01:30AM -24.5089 163.5159 226° Southwest  Level Estimated
01:30AM -24.5964 163.4252 224° Southwest 36,000  Level Aus ATC (Calculated)
01:32AM -24.7468 163.2539 226° Southwest  Level Estimated
01:32AM -24.7706 163.2316 224° Southwest 36,000  Level Aus ATC (Calculated)
01:33AM -24.8477 163.1435 226° Southwest  Level Estimated
01:33AM -24.8812 163.1083 224° Southwest 36,000  Level Aus ATC (Calculated)
01:35AM -25.0152 162.9546 226° Southwest  Level Estimated
01:36AM -25.0927 162.8678 225° Southwest  Level FlightAware Approximate
01:37AM -25.1702 162.7808 225° Southwest  Level FlightAware Approximate
01:38AM -25.2477 162.6938 225° Southwest  Level FlightAware Approximate
01:39AM -25.3250 162.6066 226° Southwest  Level FlightAware Approximate
01:40AM -25.4024 162.5193 226° Southwest  Level FlightAware Approximate
01:41AM -25.4797 162.4319 226° Southwest  Level FlightAware Approximate
01:42AM -25.5569 162.3444 226° Southwest  Level FlightAware Approximate
01:43AM -25.6341 162.2567 226° Southwest  Level FlightAware Approximate
01:44AM -25.7112 162.1690 226° Southwest  Level FlightAware Approximate
01:45AM -25.7883 162.0811 226° Southwest  Level FlightAware Approximate
01:46AM -25.8653 161.9932 226° Southwest  Level FlightAware Approximate
01:47AM -25.9423 161.9051 226° Southwest  Level FlightAware Approximate
01:48AM -26.0192 161.8169 226° Southwest  Level FlightAware Approximate
01:49AM -26.0961 161.7286 226° Southwest  Level FlightAware Approximate
01:50AM -26.1729 161.6402 226° Southwest  Level FlightAware Approximate
01:51AM -26.2496 161.5516 226° Southwest  Level FlightAware Approximate
01:52AM -26.3263 161.4630 226° Southwest  Level FlightAware Approximate
01:53AM -26.4030 161.3742 226° Southwest  Level FlightAware Approximate
01:53AM -26.8973 160.7988 223° Southwest 36,000  Level Aus ATC (Calculated)
01:55AM -27.0268 160.6462 226° Southwest  Level FlightAware Approximate
01:55AM -27.1106 160.5472 223° Southwest 36,000  Level Aus ATC (Calculated)
01:57AM -27.2398 160.3940 226° Southwest  Level FlightAware Approximate
01:57AM -27.2902 160.3342 223° Southwest 36,000  Level Aus ATC (Calculated)
01:59AM -27.4192 160.1805 227° Southwest  Level FlightAware Approximate
02:00AM -27.4950 160.0900 227° Southwest  Level FlightAware Approximate
02:01AM -27.5707 159.9993 227° Southwest  Level FlightAware Approximate
02:01AM -27.7132 159.8282 222° Southwest 36,000  Level Aus ATC (Calculated)
02:02AM -27.7810 159.7465 222° Southwest 36,000 60 Level Aus ATC (Calculated)
02:04AM -27.8871 159.6183 227° Southwest  Level FlightAware Approximate
02:04AM -27.9587 159.5316 222° Southwest 36,000  Level Aus ATC (Calculated)
02:06AM -28.0843 159.3790 227° Southwest  Level FlightAware Approximate
02:07AM -28.1589 159.2883 227° Southwest  Level FlightAware Approximate
02:08AM -28.2333 159.1973 227° Southwest  Level FlightAware Approximate
02:09AM -28.3077 159.1063 227° Southwest  Level FlightAware Approximate
02:09AM -28.4582 158.9214 219° Southwest 36,000  Level Aus ATC (Calculated)
02:11AM -28.5843 158.7659 227° Southwest  Level FlightAware Approximate
02:12AM -28.6584 158.6742 227° Southwest  Level FlightAware Approximate
02:13AM -28.7324 158.5824 227° Southwest  Level FlightAware Approximate
02:14AM -28.8064 158.4905 227° Southwest  Level FlightAware Approximate
02:14AM -28.9053 158.3672 210° Southwest 36,000  Level Aus ATC (Calculated)
02:16AM -29.0372 158.2023 228° Southwest  Level FlightAware Approximate
02:17AM -29.1147 158.1051 228° Southwest  Level FlightAware Approximate
02:18AM -29.1921 158.0077 228° Southwest  Level FlightAware Approximate
02:19AM -29.2694 157.9102 228° Southwest  Level FlightAware Approximate
02:19AM -29.3097 157.8593 137° Southeast 36,000  Level Aus ATC (Calculated)
02:21AM -29.4423 157.6914 228° Southwest  Level FlightAware Approximate
02:22AM -29.5194 157.5934 228° Southwest  Level FlightAware Approximate
02:23AM -29.5964 157.4953 228° Southwest  Level FlightAware Approximate
02:24AM -29.6734 157.3970 228° Southwest  Level FlightAware Approximate
02:24AM -29.7523 157.2959 64° Northeast 36,000  Level Aus ATC (Calculated)
02:26AM -29.8841 157.1266 228° Southwest  Level FlightAware Approximate
02:27AM -29.9608 157.0277 228° Southwest  Level FlightAware Approximate
02:28AM -30.0375 156.9287 228° Southwest  Level FlightAware Approximate
02:28AM -29.4474 158.0082 228° Southwest 403 464 38,100  Level Aus ATC (RADAR)
02:29AM -29.5004 157.9508 223° Southwest 394 453 38,100  Level Aus ATC (RADAR)
02:29AM -29.5326 157.9152 224° Southwest 392 451 38,100  Level Aus ATC (RADAR)
02:30AM -29.5779 157.8652 224° Southwest 389 448 38,100  Level Aus ATC (RADAR)
02:30AM -29.6283 157.8087 224° Southwest 385 443 38,100  Level Aus ATC (RADAR)
02:31AM -29.6737 157.7582 224° Southwest 386 444 38,100  Level Aus ATC (RADAR)
02:32AM -29.7217 157.7069 223° Southwest 392 451 38,100  Level Aus ATC (RADAR)
02:32AM -29.7627 157.6627 223° Southwest 396 456 38,100  Level Aus ATC (RADAR)
02:33AM -29.8292 157.5897 224° Southwest 396 456 38,100  Level Aus ATC (RADAR)
02:34AM -29.8811 157.5317 224° Southwest 394 453 38,100  Level Aus ATC (RADAR)
02:34AM -29.9266 157.4809 224° Southwest 392 451 38,100  Level Aus ATC (RADAR)
02:35AM -29.9719 157.4306 224° Southwest 390 449 38,100  Level Aus ATC (RADAR)
02:35AM -30.0111 157.3873 224° Southwest 390 449 38,100  Level Aus ATC (RADAR)
02:36AM -30.0575 157.3361 224° Southwest 392 451 38,100  Level Aus ATC (RADAR)
02:36AM -30.1018 157.2862 224° Southwest 388 447 38,100  Level Aus ATC (RADAR)
02:37AM -30.1399 157.2434 224° Southwest 385 443 38,100  Level Aus ATC (RADAR)
02:38AM -30.2034 157.1723 224° Southwest 362 417 38,100  Level Aus ATC (RADAR)
02:38AM -30.2292 157.1434 224° Southwest 367 422 38,100  Level Aus ATC (RADAR)
02:39AM -30.2743 157.0932 224° Southwest 380 437 38,100  Level Aus ATC (RADAR)
02:39AM -30.3191 157.0433 224° Southwest 383 441 38,100  Level Aus ATC (RADAR)
02:40AM -30.3639 156.9932 224° Southwest 383 441 38,100  Level Aus ATC (RADAR)
02:40AM -30.4084 156.9429 224° Southwest 383 441 38,100  Level Aus ATC (RADAR)
02:41AM -30.4467 156.8998 224° Southwest 384 442 38,100  Level Aus ATC (RADAR)
02:41AM -30.4920 156.8492 224° Southwest 386 444 38,100  Level Aus ATC (RADAR)
02:42AM -30.5308 156.8055 224° Southwest 387 445 38,100  Level Aus ATC (RADAR)
02:43AM -30.5888 156.7399 224° Southwest 388 447 38,100  Level Aus ATC (RADAR)
02:43AM -30.6280 156.6957 224° Southwest 391 450 38,100  Level Aus ATC (RADAR)
02:44AM -30.6670 156.6517 224° Southwest 391 450 38,100  Level Aus ATC (RADAR)
02:44AM -30.7127 156.6001 224° Southwest 392 451 38,100  Level Aus ATC (RADAR)
02:45AM -30.7517 156.5555 225° Southwest 393 452 38,100  Level Aus ATC (RADAR)
02:45AM -30.7947 156.5013 227° Southwest 392 451 38,100  Level Aus ATC (RADAR)
02:46AM -30.8368 156.4464 228° Southwest 390 449 38,100  Level Aus ATC (RADAR)
02:46AM -30.8730 156.3994 228° Southwest 390 449 38,100  Level Aus ATC (RADAR)
02:47AM -30.9156 156.3443 228° Southwest 390 449 38,100  Level Aus ATC (RADAR)
02:48AM -30.9697 156.2741 228° Southwest 389 448 38,100  Level Aus ATC (RADAR)
02:48AM -30.9936 156.2429 228° Southwest 389 448 38,100 -120 Level Aus ATC (RADAR)
02:49AM -31.0358 156.1880 228° Southwest 389 448 38,000  Descending Aus ATC (RADAR)
02:49AM -31.0717 156.1414 228° Southwest 388 447 38,100 60 Climbing Aus ATC (RADAR)
02:50AM -31.1138 156.0865 228° Southwest 388 447 38,100  Level Aus ATC (RADAR)
02:50AM -31.1559 156.0314 228° Southwest 390 449 38,100  Level Aus ATC (RADAR)
02:51AM -31.1982 155.9763 228° Southwest 391 450 38,100  Level Aus ATC (RADAR)
02:52AM -31.2647 155.8893 228° Southwest 392 451 38,100  Level Aus ATC (RADAR)
02:52AM -31.2829 155.8653 228° Southwest 392 451 38,100  Level Aus ATC (RADAR)
02:53AM -31.3372 155.7938 228° Southwest 393 452 38,100  Level Aus ATC (RADAR)
02:53AM -31.3738 155.7457 228° Southwest 394 453 38,100  Level Aus ATC (RADAR)
02:54AM -31.4166 155.6894 228° Southwest 396 456 38,100  Level Aus ATC (RADAR)
02:54AM -31.4593 155.6333 228° Southwest 397 457 38,100  Level Aus ATC (RADAR)
02:55AM -31.4960 155.5847 228° Southwest 397 457 38,100 -120 Level Aus ATC (RADAR)
02:56AM -31.5782 155.4756 228° Southwest 401 461 38,000  Descending FlightAware ADS-B (YPLB)
02:56AM -31.5449 155.5199 228° Southwest 398 458 38,100  Climbing Aus ATC (RADAR)
02:56AM -31.6132 155.4292 228° Southwest 401 461 38,000  Descending FlightAware ADS-B (YPLB)
02:56AM -31.5876 155.4635 228° Southwest 397 457 38,100  Climbing Aus ATC (RADAR)
02:57AM -31.6515 155.3785 228° Southwest 398 458 38,000  Descending FlightAware ADS-B (YPLB)
02:57AM -31.6242 155.4148 228° Southwest 398 458 38,100  Climbing Aus ATC (RADAR)
02:57AM -31.6907 155.3261 228° Southwest 397 457 38,000  Descending FlightAware ADS-B (YPLB)
02:57AM -31.6667 155.3582 228° Southwest 396 456 38,100  Climbing Aus ATC (RADAR)
02:58AM -31.7358 155.2661 228° Southwest 396 456 38,000  Descending FlightAware ADS-B (YPLB)
02:58AM -31.7339 155.2689 228° Southwest 399 459 38,100  Climbing Aus ATC (RADAR)
02:58AM -31.7706 155.2198 228° Southwest 394 453 38,000  Descending FlightAware ADS-B (YPLB)
02:59AM -31.7639 155.2290 228° Southwest 395 455 38,100  Climbing Aus ATC (RADAR)
02:59AM -31.8106 155.1664 228° Southwest 393 452 38,000  Descending FlightAware ADS-B (YPLB)
02:59AM -31.8058 155.1730 228° Southwest 393 452 38,100  Climbing Aus ATC (RADAR)
02:59AM -31.8583 155.1025 228° Southwest 393 452 38,000  Descending FlightAware ADS-B (YPLB)
03:00AM -31.8536 155.1091 228° Southwest 391 450 38,100 60 Climbing Aus ATC (RADAR)
03:00AM -31.8955 155.0527 228° Southwest 392 451 38,100 -180 Level Aus ATC (RADAR)
03:01AM -31.9427 154.9893 229° Southwest 394 453 38,000  Descending FlightAware ADS-B (YPLB)
03:01AM -31.9376 154.9967 229° Southwest 393 452 38,100  Climbing Aus ATC (RADAR)
03:01AM -31.9886 154.9276 228° Southwest 396 456 38,000  Descending FlightAware ADS-B (YPLB)
03:02AM -31.9734 154.9483 229° Southwest 393 452 38,100  Climbing Aus ATC (RADAR)
03:02AM -32.0267 154.8764 228° Southwest 398 458 38,000  Descending FlightAware ADS-B (YPLB)
03:02AM -32.0157 154.8915 228° Southwest 395 455 38,100  Climbing Aus ATC (RADAR)
03:02AM -32.0761 154.8099 228° Southwest 399 459 38,000  Descending FlightAware ADS-B (YPLB)
03:03AM -32.0581 154.8344 228° Southwest 396 456 38,100  Climbing Aus ATC (RADAR)
03:03AM -32.1115 154.7620 228° Southwest 400 460 38,000 -120 Descending FlightAware ADS-B (YPLB)
03:04AM -32.1722 154.6799 228° Southwest 401 461 38,000 60 Level FlightAware ADS-B (YPLB)
03:04AM -32.1432 154.7195 228° Southwest 399 459 38,100  Climbing Aus ATC (RADAR)
03:04AM -32.2097 154.6291 229° Southwest 402 463 38,000  Descending FlightAware ADS-B (YPLB)
03:04AM -32.1857 154.6620 228° Southwest 399 459 38,100  Climbing Aus ATC (RADAR)
03:05AM -32.2581 154.5632 229° Southwest 403 464 38,000  Descending FlightAware ADS-B (YPLB)
03:05AM -32.2344 154.5956 229° Southwest 402 463 38,100  Climbing Aus ATC (RADAR)
03:05AM -32.2942 154.5142 229° Southwest 403 464 38,000  Descending FlightAware ADS-B (YPLB)
03:06AM -32.2773 154.5376 229° Southwest 403 464 38,100  Climbing Aus ATC (RADAR)
03:06AM -32.3427 154.4483 229° Southwest 402 463 38,000  Descending FlightAware ADS-B (YPLB)
03:06AM -32.3140 154.4878 229° Southwest 402 463 38,100  Climbing Aus ATC (RADAR)
03:07AM -32.3808 154.3963 229° Southwest 401 461 38,000  Descending FlightAware ADS-B (YPLB)
03:07AM -32.3565 154.4298 229° Southwest 401 461 38,100 120 Climbing Aus ATC (RADAR)
03:07AM -32.3929 154.3801 229° Southwest 401 461 38,100 -240 Level Aus ATC (RADAR)
03:07AM -32.4282 154.3316 229° Southwest 399 459 38,000 -240 Descending FlightAware ADS-B (YPLB)
03:08AM -32.4648 154.2815 229° Southwest 397 457 38,000 120 Level FlightAware ADS-B (YPLB)
03:08AM -32.4352 154.3223 229° Southwest 400 460 38,100 120 Climbing Aus ATC (RADAR)
03:09AM -32.4892 154.2483 229° Southwest 397 457 38,100 -120 Level Aus ATC (RADAR)
03:09AM -32.5476 154.1679 229° Southwest 394 453 38,000  Descending FlightAware ADS-B (YPLB)
03:09AM -32.5190 154.2074 229° Southwest 396 456 38,100  Climbing Aus ATC (RADAR)
03:10AM -32.5598 154.1513 229° Southwest 394 453 38,000  Descending FlightAware ADS-B (YRPA)
03:10AM -32.6081 154.0850 229° Southwest 394 453 38,100  Climbing Aus ATC (RADAR)
03:11AM -32.6237 154.0634 229° Southwest 393 452 38,000 -120 Descending FlightAware ADS-B (YRPA)
03:11AM -32.7041 153.9525 229° Southwest 392 451 38,000 60 Level FlightAware ADS-B (YPLB)
03:11AM -32.6907 153.9711 229° Southwest 392 451 38,100  Climbing Aus ATC (RADAR)
03:12AM -32.7108 153.9432 229° Southwest 393 452 38,000 -120 Descending FlightAware ADS-B (YRPA)
03:12AM -32.7856 153.8400 229° Southwest 393 452 38,000 60 Level FlightAware ADS-B (YPLB)
03:13AM -32.7738 153.8567 229° Southwest 394 453 38,100  Climbing Aus ATC (RADAR)
03:13AM -32.7973 153.8238 230° Southwest 394 453 38,000  Descending FlightAware ADS-B (YRPA)
03:14AM -32.8448 153.7582 230° Southwest 394 453 38,100  Climbing Aus ATC (RADAR)
03:14AM -32.8698 153.7231 230° Southwest 396 456 38,000 -120 Descending FlightAware ADS-B (YRPA)
03:15AM -32.9379 153.6283 230° Southwest 399 459 38,000  Level FlightAware ADS-B (YRPA)
03:16AM -33.0135 153.5229 229° Southwest 400 460 38,000 120 Level FlightAware ADS-B (YPLB)
03:16AM -32.9995 153.5429 230° Southwest 400 460 38,100  Climbing Aus ATC (RADAR)
03:16AM -33.0314 153.4978 230° Southwest 400 460 38,000  Descending FlightAware ADS-B (YRPA)
03:17AM -33.0833 153.4259 230° Southwest 400 460 38,100  Climbing Aus ATC (RADAR)
03:17AM -33.1074 153.3915 230° Southwest 400 460 38,000 -120 Descending FlightAware ADS-B (YRPA)
03:18AM -33.1816 153.2872 229° Southwest 398 458 38,000 120 Level FlightAware ADS-B (YPLB)
03:18AM -33.1628 153.3143 230° Southwest 389 448 38,100  Climbing Aus ATC (RADAR)
03:19AM -33.1950 153.2683 230° Southwest 398 458 38,000 -720 Descending FlightAware ADS-B (YRPA)
03:19AM -33.2747 153.1559 229° Southwest 390 449 37,300  Descending FlightAware ADS-B (YPLB)
03:19AM -33.2516 153.1890 230° Southwest 386 444 38,000 -540 Climbing Aus ATC (RADAR)
03:20AM -33.2822 153.1454 230° Southwest 390 449 37,000 -2,520 Descending FlightAware ADS-B (YRPA)
03:21AM -33.3425 153.0603 230° Southwest 389 448 34,800 -2,820 Descending Aus ATC (RADAR)
03:21AM -33.3522 153.0462 230° Southwest 393 452 34,200 -4,620 Descending FlightAware ADS-B (YRPA)
03:22AM -33.4251 152.9430 230° Southwest 443 510 29,600 -3,420 Descending FlightAware ADS-B (YRPA)
03:22AM -33.4706 152.8795 230° Southwest 425 489 28,900 -1,200 Descending Aus ATC (RADAR)
03:23AM -33.5022 152.8338 230° Southwest 414 476 28,400 -960 Descending FlightAware ADS-B (YRPA)
03:23AM -33.4359 152.9279 230° Southwest 415 478 27,900 -1,560 Descending FlightAware ADS-B
03:24AM -33.6084 152.6818 230° Southwest 406 467 26,200 -2,220 Descending Aus ATC (RADAR)
03:25AM -33.6497 152.6229 230° Southwest 399 459 24,900 -2,220 Descending Aus ATC (RADAR)
03:25AM -33.6616 152.6064 230° Southwest 394 453 24,500 -2,160 Descending FlightAware ADS-B (YRPA)
03:26AM -33.7224 152.5208 230° Southwest 387 445 22,700 -2,220 Descending Aus ATC (RADAR)
03:26AM -33.7334 152.5040 230° Southwest 388 447 22,300 -2,220 Descending FlightAware ADS-B (YRPA)
03:27AM -33.7440 152.4886 231° Southwest 381 438 20,700 -2,100 Descending FlightAware ADS-B (YWST)
03:28AM -33.8367 152.3469 231° Southwest 375 432 19,100 -2,400 Descending Aus ATC (RADAR)
03:28AM -33.8421 152.3159 257° West 365 420 18,100 -4,500 Descending FlightAware ADS-B (YWST)
03:28AM -33.8501 152.1981 266° West 360 414 15,500 -2,460 Descending FlightAware ADS-B (YPLB)
03:29AM -33.8512 152.1744 267° West 358 412 15,200 -1,620 Descending FlightAware ADS-B (YRPA)
03:30AM -33.8574 152.0594 266° West 341 392 12,900 -2,280 Descending FlightAware ADS-B (YRPA)
03:31AM -33.8613 151.9801 266° West 339 390 11,400 -2,220 Descending Aus ATC (RADAR)
03:31AM -33.8635 151.9470 266° West 342 394 10,700 -3,720 Descending FlightAware ADS-B (YRPA)
03:31AM -33.8685 151.8581 266° West 331 381 9,000 -2,340 Descending FlightAware ADS-B (YPLB)
03:32AM -33.8697 151.8376 266° West 329 379 8,400 -1,380 Descending FlightAware ADS-B (YRPA)
03:33AM -33.8735 151.7683 266° West 319 367 7,100 -1,740 Descending FlightAware ADS-B
03:33AM -33.8781 151.6793 266° West 303 349 5,900 -1,080 Descending Aus ATC (RADAR)
03:34AM -33.8819 151.6090 266° West 257 296 5,500 -660 Descending FlightAware ADS-B
03:35AM -33.8833 151.5823 266° West 248 285 5,200 -900 Descending FlightAware ADS-B
03:35AM -33.8846 151.5575 266° West 242 278 4,900 -780 Descending FlightAware ADS-B
03:35AM -33.8858 151.5365 266° West 236 272 4,700 -600 Descending FlightAware ADS-B
03:36AM -33.8874 151.5066 266° West 234 269 4,500 -600 Descending FlightAware ADS-B
03:36AM -33.8887 151.4804 267° West 223 257 4,300 -480 Descending FlightAware ADS-B
03:36AM -33.8892 151.4712 267° West 214 246 4,200 -480 Descending FlightAware ADS-B
03:36AM -33.8906 151.4427 266° West 207 238 4,100 -600 Descending FlightAware ADS-B (YRAY)
03:37AM -33.8916 151.4230 267° West 201 231 3,900 -1,020 Descending FlightAware ADS-B
03:37AM -33.8926 151.4012 267° West 194 223 3,500 -1,020 Descending FlightAware ADS-B (YRPA)
03:37AM -33.8916 151.4230 267° West 201 231 3,400 -1,080 Descending FlightAware ADS-B
03:38AM -33.8960 151.3659 258° West 187 215 2,900 -1,080 Descending FlightAware ADS-B
03:38AM -33.8969 151.3609 255° West 182 209 2,700 -1,080 Descending FlightAware ADS-B
03:38AM -33.9047 151.3271 255° West 182 209 2,200 -1,380 Descending FlightAware ADS-B
03:38AM -33.9079 151.3142 253° West 164 189 1,900 -780 Descending FlightAware ADS-B (YWST)
03:39AM -33.9120 151.2978 254° West 159 183 1,800 -720 Descending FlightAware ADS-B (YRAY)
03:39AM -33.9151 151.2844 255° West 156 180 1,500 -840 Descending FlightAware ADS-B
03:39AM -33.9173 151.2746 254° West 153 176 1,300 -780 Descending FlightAware ADS-B
03:40AM -33.9227 151.2521 254° West 153 176 1,000 -780 Descending FlightAware ADS-B
03:40AM -33.9256 151.2397 257° West 152 175 900 -840 Descending FlightAware ADS-B (YRAY)
03:40AM -33.9281 151.2289 255° West 154 177 600 -960 Descending FlightAware ADS-B
03:40AM -33.9319 151.2136 255° West 150 173 400 -840 Descending FlightAware ADS-B (YRAY)
03:41AM -33.9328 151.2102 254° West 152 175 200 -840 Descending FlightAware ADS-B
03:41AM -33.9377 151.1894 255° West 152 175 -840 Descending FlightAware ADS-B (YRPA)